sensor_id;sensor_type;location;lat;lon;timestamp;P1;durP1;ratioP1;P2;durP2;ratioP2
12314;SDS011;23886;46.614;14.276;2023-01-29T00:01:13;22.77;;;17.87;;
12314;SDS011;23886;46.614;14.276;2023-01-29T00:03:41;24.17;;;18.23;;
12314;SDS011;23886;46.614;14.276;2023-01-29T00:06:08;30.97;;;21.50;;
12314;SDS011;23886;46.614;14.276;2023-01-29T00:08:37;37.90;;;26.10;;
12314;SDS011;23886;46.614;14.276;2023-01-29T00:11:04;39.17;;;25.87;;
12314;SDS011;23886;46.614;14.276;2023-01-29T00:13:33;34.07;;;23.87;;
12314;SDS011;23886;46.614;14.276;2023-01-29T00:16:01;35.03;;;23.47;;
12314;SDS011;23886;46.614;14.276;2023-01-29T00:18:28;34.47;;;23.17;;
12314;SDS011;23886;46.614;14.276;2023-01-29T00:20:57;34.77;;;23.83;;
12314;SDS011;23886;46.614;14.276;2023-01-29T00:23:25;30.80;;;22.00;;
12314;SDS011;23886;46.614;14.276;2023-01-29T00:25:52;26.33;;;20.00;;
12314;SDS011;23886;46.614;14.276;2023-01-29T00:28:19;25.27;;;20.17;;
12314;SDS011;23886;46.614;14.276;2023-01-29T00:30:46;25.63;;;20.53;;
12314;SDS011;23886;46.614;14.276;2023-01-29T00:33:12;25.53;;;19.17;;
12314;SDS011;23886;46.614;14.276;2023-01-29T00:35:40;24.10;;;18.10;;
12314;SDS011;23886;46.614;14.276;2023-01-29T00:38:08;24.43;;;18.70;;
12314;SDS011;23886;46.614;14.276;2023-01-29T00:40:38;24.70;;;18.20;;
12314;SDS011;23886;46.614;14.276;2023-01-29T00:43:23;21.27;;;17.60;;
12314;SDS011;23886;46.614;14.276;2023-01-29T00:46:08;19.80;;;16.77;;
12314;SDS011;23886;46.614;14.276;2023-01-29T00:48:35;19.63;;;15.93;;
12314;SDS011;23886;46.614;14.276;2023-01-29T00:51:02;20.80;;;16.30;;
12314;SDS011;23886;46.614;14.276;2023-01-29T00:53:30;19.53;;;16.37;;
12314;SDS011;23886;46.614;14.276;2023-01-29T00:55:57;19.43;;;15.43;;
12314;SDS011;23886;46.614;14.276;2023-01-29T00:58:24;17.97;;;15.77;;
12314;SDS011;23886;46.614;14.276;2023-01-29T01:00:58;21.30;;;16.63;;
12314;SDS011;23886;46.614;14.276;2023-01-29T01:03:26;18.47;;;15.60;;
12314;SDS011;23886;46.614;14.276;2023-01-29T01:06:01;19.63;;;16.20;;
12314;SDS011;23886;46.614;14.276;2023-01-29T01:08:31;20.97;;;16.90;;
12314;SDS011;23886;46.614;14.276;2023-01-29T01:11:15;21.70;;;17.20;;
12314;SDS011;23886;46.614;14.276;2023-01-29T01:13:42;22.27;;;17.00;;
12314;SDS011;23886;46.614;14.276;2023-01-29T01:16:10;24.03;;;17.50;;
12314;SDS011;23886;46.614;14.276;2023-01-29T01:18:38;24.70;;;18.30;;
12314;SDS011;23886;46.614;14.276;2023-01-29T01:21:04;22.57;;;17.60;;
12314;SDS011;23886;46.614;14.276;2023-01-29T01:23:33;22.27;;;16.43;;
12314;SDS011;23886;46.614;14.276;2023-01-29T01:26:00;19.80;;;16.00;;
12314;SDS011;23886;46.614;14.276;2023-01-29T01:28:27;17.87;;;14.80;;
12314;SDS011;23886;46.614;14.276;2023-01-29T01:30:54;20.57;;;16.00;;
12314;SDS011;23886;46.614;14.276;2023-01-29T01:33:21;22.17;;;17.63;;
12314;SDS011;23886;46.614;14.276;2023-01-29T01:35:48;21.83;;;17.40;;
12314;SDS011;23886;46.614;14.276;2023-01-29T01:38:15;19.47;;;16.37;;
12314;SDS011;23886;46.614;14.276;2023-01-29T01:40:44;24.40;;;18.93;;
12314;SDS011;23886;46.614;14.276;2023-01-29T01:43:11;20.20;;;17.20;;
12314;SDS011;23886;46.614;14.276;2023-01-29T01:45:38;19.73;;;15.80;;
12314;SDS011;23886;46.614;14.276;2023-01-29T01:48:07;17.70;;;14.63;;
12314;SDS011;23886;46.614;14.276;2023-01-29T01:50:38;16.73;;;13.43;;
12314;SDS011;23886;46.614;14.276;2023-01-29T01:53:10;15.87;;;13.47;;
12314;SDS011;23886;46.614;14.276;2023-01-29T01:55:40;19.40;;;14.37;;
12314;SDS011;23886;46.614;14.276;2023-01-29T01:58:15;15.50;;;13.50;;
12314;SDS011;23886;46.614;14.276;2023-01-29T02:00:47;17.07;;;13.73;;
12314;SDS011;23886;46.614;14.276;2023-01-29T02:03:15;18.20;;;13.73;;
12314;SDS011;23886;46.614;14.276;2023-01-29T02:06:02;15.30;;;13.70;;
12314;SDS011;23886;46.614;14.276;2023-01-29T02:08:48;16.53;;;14.10;;
12314;SDS011;23886;46.614;14.276;2023-01-29T02:11:39;17.00;;;14.00;;
12314;SDS011;23886;46.614;14.276;2023-01-29T02:14:06;15.87;;;13.37;;
12314;SDS011;23886;46.614;14.276;2023-01-29T02:16:33;15.83;;;13.40;;
12314;SDS011;23886;46.614;14.276;2023-01-29T02:19:01;16.30;;;13.30;;
12314;SDS011;23886;46.614;14.276;2023-01-29T02:21:38;15.80;;;13.60;;
12314;SDS011;23886;46.614;14.276;2023-01-29T02:24:37;14.40;;;12.20;;
12314;SDS011;23886;46.614;14.276;2023-01-29T02:27:25;18.57;;;13.23;;
12314;SDS011;23886;46.614;14.276;2023-01-29T02:30:01;14.43;;;11.93;;
12314;SDS011;23886;46.614;14.276;2023-01-29T02:32:33;14.53;;;12.07;;
12314;SDS011;23886;46.614;14.276;2023-01-29T02:35:09;14.17;;;11.90;;
12314;SDS011;23886;46.614;14.276;2023-01-29T02:37:59;15.10;;;13.20;;
12314;SDS011;23886;46.614;14.276;2023-01-29T02:40:34;14.23;;;12.07;;
12314;SDS011;23886;46.614;14.276;2023-01-29T02:43:07;14.63;;;13.03;;
12314;SDS011;23886;46.614;14.276;2023-01-29T02:45:44;17.77;;;12.80;;
12314;SDS011;23886;46.614;14.276;2023-01-29T02:48:15;20.93;;;15.27;;
12314;SDS011;23886;46.614;14.276;2023-01-29T02:50:46;24.97;;;17.03;;
12314;SDS011;23886;46.614;14.276;2023-01-29T02:53:17;24.17;;;17.83;;
12314;SDS011;23886;46.614;14.276;2023-01-29T02:55:49;22.97;;;17.13;;
12314;SDS011;23886;46.614;14.276;2023-01-29T02:58:19;20.37;;;17.10;;
12314;SDS011;23886;46.614;14.276;2023-01-29T03:00:54;18.07;;;14.40;;
12314;SDS011;23886;46.614;14.276;2023-01-29T03:03:28;17.90;;;14.50;;
12314;SDS011;23886;46.614;14.276;2023-01-29T03:06:00;18.63;;;14.33;;
12314;SDS011;23886;46.614;14.276;2023-01-29T03:08:32;18.53;;;14.17;;
12314;SDS011;23886;46.614;14.276;2023-01-29T03:11:07;17.60;;;14.57;;
12314;SDS011;23886;46.614;14.276;2023-01-29T03:13:39;17.50;;;13.50;;
12314;SDS011;23886;46.614;14.276;2023-01-29T03:16:10;16.60;;;13.47;;
12314;SDS011;23886;46.614;14.276;2023-01-29T03:18:44;14.63;;;12.77;;
12314;SDS011;23886;46.614;14.276;2023-01-29T03:21:16;15.90;;;12.40;;
12314;SDS011;23886;46.614;14.276;2023-01-29T03:24:04;15.90;;;12.97;;
12314;SDS011;23886;46.614;14.276;2023-01-29T03:26:51;15.23;;;11.97;;
12314;SDS011;23886;46.614;14.276;2023-01-29T03:29:37;14.50;;;11.97;;
12314;SDS011;23886;46.614;14.276;2023-01-29T03:32:26;14.40;;;12.67;;
12314;SDS011;23886;46.614;14.276;2023-01-29T03:34:56;15.33;;;12.83;;
12314;SDS011;23886;46.614;14.276;2023-01-29T03:37:26;15.43;;;12.50;;
12314;SDS011;23886;46.614;14.276;2023-01-29T03:39:59;13.63;;;11.93;;
12314;SDS011;23886;46.614;14.276;2023-01-29T03:42:27;14.10;;;11.73;;
12314;SDS011;23886;46.614;14.276;2023-01-29T03:45:03;15.27;;;12.63;;
12314;SDS011;23886;46.614;14.276;2023-01-29T03:47:42;15.50;;;12.90;;
12314;SDS011;23886;46.614;14.276;2023-01-29T03:50:16;15.30;;;11.73;;
12314;SDS011;23886;46.614;14.276;2023-01-29T03:52:58;13.67;;;12.17;;
12314;SDS011;23886;46.614;14.276;2023-01-29T03:55:32;14.10;;;12.60;;
12314;SDS011;23886;46.614;14.276;2023-01-29T03:58:03;14.63;;;12.67;;
12314;SDS011;23886;46.614;14.276;2023-01-29T04:00:39;14.53;;;12.87;;
12314;SDS011;23886;46.614;14.276;2023-01-29T04:03:11;15.10;;;12.13;;
12314;SDS011;23886;46.614;14.276;2023-01-29T04:05:45;14.20;;;12.70;;
12314;SDS011;23886;46.614;14.276;2023-01-29T04:08:18;15.70;;;13.30;;
12314;SDS011;23886;46.614;14.276;2023-01-29T04:10:50;16.07;;;13.33;;
12314;SDS011;23886;46.614;14.276;2023-01-29T04:13:18;14.47;;;12.87;;
12314;SDS011;23886;46.614;14.276;2023-01-29T04:15:47;16.13;;;13.07;;
12314;SDS011;23886;46.614;14.276;2023-01-29T04:18:20;13.40;;;12.00;;
12314;SDS011;23886;46.614;14.276;2023-01-29T04:20:49;18.47;;;12.93;;
12314;SDS011;23886;46.614;14.276;2023-01-29T04:23:20;14.13;;;12.63;;
12314;SDS011;23886;46.614;14.276;2023-01-29T04:25:51;15.67;;;13.60;;
12314;SDS011;23886;46.614;14.276;2023-01-29T04:28:33;16.53;;;14.13;;
12314;SDS011;23886;46.614;14.276;2023-01-29T04:31:15;15.20;;;13.43;;
12314;SDS011;23886;46.614;14.276;2023-01-29T04:33:46;17.17;;;14.67;;
12314;SDS011;23886;46.614;14.276;2023-01-29T04:36:25;16.63;;;14.50;;
12314;SDS011;23886;46.614;14.276;2023-01-29T04:39:01;18.03;;;14.87;;
12314;SDS011;23886;46.614;14.276;2023-01-29T04:41:37;16.27;;;14.57;;
12314;SDS011;23886;46.614;14.276;2023-01-29T04:44:15;17.07;;;14.73;;
12314;SDS011;23886;46.614;14.276;2023-01-29T04:46:46;19.03;;;16.50;;
12314;SDS011;23886;46.614;14.276;2023-01-29T04:49:22;19.30;;;16.63;;
12314;SDS011;23886;46.614;14.276;2023-01-29T04:51:59;19.03;;;16.40;;
12314;SDS011;23886;46.614;14.276;2023-01-29T04:54:35;17.70;;;15.80;;
12314;SDS011;23886;46.614;14.276;2023-01-29T04:57:16;19.23;;;15.57;;
12314;SDS011;23886;46.614;14.276;2023-01-29T04:59:50;18.30;;;15.83;;
12314;SDS011;23886;46.614;14.276;2023-01-29T05:02:23;17.00;;;15.00;;
12314;SDS011;23886;46.614;14.276;2023-01-29T05:04:53;17.60;;;15.57;;
12314;SDS011;23886;46.614;14.276;2023-01-29T05:07:21;17.43;;;14.87;;
12314;SDS011;23886;46.614;14.276;2023-01-29T05:09:49;16.57;;;14.77;;
12314;SDS011;23886;46.614;14.276;2023-01-29T05:12:17;20.57;;;15.57;;
12314;SDS011;23886;46.614;14.276;2023-01-29T05:14:44;16.90;;;14.30;;
12314;SDS011;23886;46.614;14.276;2023-01-29T05:17:13;17.73;;;15.47;;
12314;SDS011;23886;46.614;14.276;2023-01-29T05:19:42;16.57;;;14.20;;
12314;SDS011;23886;46.614;14.276;2023-01-29T05:22:12;17.50;;;14.77;;
12314;SDS011;23886;46.614;14.276;2023-01-29T05:24:41;18.00;;;16.13;;
12314;SDS011;23886;46.614;14.276;2023-01-29T05:27:09;18.10;;;15.07;;
12314;SDS011;23886;46.614;14.276;2023-01-29T05:29:59;18.27;;;15.33;;
12314;SDS011;23886;46.614;14.276;2023-01-29T05:32:25;18.23;;;16.20;;
12314;SDS011;23886;46.614;14.276;2023-01-29T05:34:52;17.87;;;15.53;;
12314;SDS011;23886;46.614;14.276;2023-01-29T05:37:21;19.10;;;16.47;;
12314;SDS011;23886;46.614;14.276;2023-01-29T05:39:48;17.47;;;15.60;;
12314;SDS011;23886;46.614;14.276;2023-01-29T05:42:15;18.03;;;16.13;;
12314;SDS011;23886;46.614;14.276;2023-01-29T05:44:42;18.57;;;15.80;;
12314;SDS011;23886;46.614;14.276;2023-01-29T05:47:08;18.03;;;15.83;;
12314;SDS011;23886;46.614;14.276;2023-01-29T05:49:35;17.07;;;15.17;;
12314;SDS011;23886;46.614;14.276;2023-01-29T05:52:03;17.47;;;15.63;;
12314;SDS011;23886;46.614;14.276;2023-01-29T05:54:31;17.90;;;16.10;;
12314;SDS011;23886;46.614;14.276;2023-01-29T05:56:58;19.37;;;15.70;;
12314;SDS011;23886;46.614;14.276;2023-01-29T05:59:25;18.63;;;16.67;;
12314;SDS011;23886;46.614;14.276;2023-01-29T06:01:52;19.00;;;15.83;;
12314;SDS011;23886;46.614;14.276;2023-01-29T06:04:19;19.03;;;15.97;;
12314;SDS011;23886;46.614;14.276;2023-01-29T06:06:46;19.10;;;16.77;;
12314;SDS011;23886;46.614;14.276;2023-01-29T06:09:13;18.10;;;16.20;;
12314;SDS011;23886;46.614;14.276;2023-01-29T06:11:41;18.60;;;15.43;;
12314;SDS011;23886;46.614;14.276;2023-01-29T06:14:08;17.10;;;15.30;;
12314;SDS011;23886;46.614;14.276;2023-01-29T06:16:35;18.27;;;16.30;;
12314;SDS011;23886;46.614;14.276;2023-01-29T06:19:02;18.93;;;16.40;;
12314;SDS011;23886;46.614;14.276;2023-01-29T06:21:29;17.03;;;15.33;;
12314;SDS011;23886;46.614;14.276;2023-01-29T06:23:57;16.97;;;15.17;;
12314;SDS011;23886;46.614;14.276;2023-01-29T06:26:24;18.57;;;16.27;;
12314;SDS011;23886;46.614;14.276;2023-01-29T06:28:52;17.90;;;15.57;;
12314;SDS011;23886;46.614;14.276;2023-01-29T06:31:19;18.73;;;15.43;;
12314;SDS011;23886;46.614;14.276;2023-01-29T06:33:46;22.93;;;17.47;;
12314;SDS011;23886;46.614;14.276;2023-01-29T06:36:13;18.47;;;16.30;;
12314;SDS011;23886;46.614;14.276;2023-01-29T06:38:40;19.30;;;15.77;;
12314;SDS011;23886;46.614;14.276;2023-01-29T06:41:07;17.80;;;15.87;;
12314;SDS011;23886;46.614;14.276;2023-01-29T06:43:35;18.67;;;16.20;;
12314;SDS011;23886;46.614;14.276;2023-01-29T06:46:05;17.83;;;15.83;;
12314;SDS011;23886;46.614;14.276;2023-01-29T06:48:33;18.10;;;15.70;;
12314;SDS011;23886;46.614;14.276;2023-01-29T06:51:00;18.37;;;16.03;;
12314;SDS011;23886;46.614;14.276;2023-01-29T06:53:28;17.03;;;15.33;;
12314;SDS011;23886;46.614;14.276;2023-01-29T06:55:55;17.20;;;15.33;;
12314;SDS011;23886;46.614;14.276;2023-01-29T06:58:22;19.87;;;17.43;;
12314;SDS011;23886;46.614;14.276;2023-01-29T07:00:49;17.63;;;15.67;;
12314;SDS011;23886;46.614;14.276;2023-01-29T07:03:18;20.53;;;17.37;;
12314;SDS011;23886;46.614;14.276;2023-01-29T07:05:49;18.47;;;16.43;;
12314;SDS011;23886;46.614;14.276;2023-01-29T07:08:16;17.80;;;15.67;;
12314;SDS011;23886;46.614;14.276;2023-01-29T07:10:43;19.00;;;16.07;;
12314;SDS011;23886;46.614;14.276;2023-01-29T07:13:10;19.17;;;17.07;;
12314;SDS011;23886;46.614;14.276;2023-01-29T07:15:37;18.07;;;16.17;;
12314;SDS011;23886;46.614;14.276;2023-01-29T07:18:04;19.57;;;16.97;;
12314;SDS011;23886;46.614;14.276;2023-01-29T07:20:37;22.43;;;19.40;;
12314;SDS011;23886;46.614;14.276;2023-01-29T07:23:05;23.70;;;19.70;;
12314;SDS011;23886;46.614;14.276;2023-01-29T07:25:34;19.73;;;17.63;;
12314;SDS011;23886;46.614;14.276;2023-01-29T07:28:01;20.53;;;17.47;;
12314;SDS011;23886;46.614;14.276;2023-01-29T07:30:29;19.83;;;17.73;;
12314;SDS011;23886;46.614;14.276;2023-01-29T07:32:59;21.57;;;18.50;;
12314;SDS011;23886;46.614;14.276;2023-01-29T07:35:27;20.57;;;18.17;;
12314;SDS011;23886;46.614;14.276;2023-01-29T07:37:56;20.07;;;17.83;;
12314;SDS011;23886;46.614;14.276;2023-01-29T07:40:23;19.27;;;17.17;;
12314;SDS011;23886;46.614;14.276;2023-01-29T07:42:50;21.83;;;19.23;;
12314;SDS011;23886;46.614;14.276;2023-01-29T07:45:17;24.60;;;21.43;;
12314;SDS011;23886;46.614;14.276;2023-01-29T07:47:43;26.50;;;20.37;;
12314;SDS011;23886;46.614;14.276;2023-01-29T07:50:16;24.70;;;19.43;;
12314;SDS011;23886;46.614;14.276;2023-01-29T07:52:44;23.00;;;18.73;;
12314;SDS011;23886;46.614;14.276;2023-01-29T07:55:12;22.63;;;18.50;;
12314;SDS011;23886;46.614;14.276;2023-01-29T07:57:39;20.20;;;16.87;;
12314;SDS011;23886;46.614;14.276;2023-01-29T08:00:06;18.73;;;15.67;;
12314;SDS011;23886;46.614;14.276;2023-01-29T08:02:34;19.27;;;16.43;;
12314;SDS011;23886;46.614;14.276;2023-01-29T08:05:01;17.87;;;15.80;;
12314;SDS011;23886;46.614;14.276;2023-01-29T08:07:28;17.60;;;15.13;;
12314;SDS011;23886;46.614;14.276;2023-01-29T08:09:55;18.13;;;15.87;;
12314;SDS011;23886;46.614;14.276;2023-01-29T08:12:23;19.10;;;17.03;;
12314;SDS011;23886;46.614;14.276;2023-01-29T08:14:50;21.40;;;18.00;;
12314;SDS011;23886;46.614;14.276;2023-01-29T08:17:17;22.73;;;18.07;;
12314;SDS011;23886;46.614;14.276;2023-01-29T08:19:44;21.90;;;17.57;;
12314;SDS011;23886;46.614;14.276;2023-01-29T08:22:11;18.73;;;16.57;;
12314;SDS011;23886;46.614;14.276;2023-01-29T08:24:39;24.13;;;19.20;;
12314;SDS011;23886;46.614;14.276;2023-01-29T08:27:06;24.33;;;20.50;;
12314;SDS011;23886;46.614;14.276;2023-01-29T08:29:34;22.07;;;19.77;;
12314;SDS011;23886;46.614;14.276;2023-01-29T08:32:01;25.57;;;20.10;;
12314;SDS011;23886;46.614;14.276;2023-01-29T08:34:28;21.63;;;18.93;;
12314;SDS011;23886;46.614;14.276;2023-01-29T08:36:55;22.63;;;19.20;;
12314;SDS011;23886;46.614;14.276;2023-01-29T08:39:22;20.13;;;17.40;;
12314;SDS011;23886;46.614;14.276;2023-01-29T08:41:49;18.90;;;16.90;;
12314;SDS011;23886;46.614;14.276;2023-01-29T08:44:16;18.10;;;16.20;;
12314;SDS011;23886;46.614;14.276;2023-01-29T08:46:44;19.73;;;17.60;;
12314;SDS011;23886;46.614;14.276;2023-01-29T08:49:11;21.17;;;18.20;;
12314;SDS011;23886;46.614;14.276;2023-01-29T08:51:38;19.87;;;17.60;;
12314;SDS011;23886;46.614;14.276;2023-01-29T08:54:05;21.50;;;18.00;;
12314;SDS011;23886;46.614;14.276;2023-01-29T08:56:32;18.47;;;16.50;;
12314;SDS011;23886;46.614;14.276;2023-01-29T08:58:59;20.33;;;18.23;;
12314;SDS011;23886;46.614;14.276;2023-01-29T09:01:26;18.07;;;16.17;;
12314;SDS011;23886;46.614;14.276;2023-01-29T09:03:54;18.83;;;16.43;;
12314;SDS011;23886;46.614;14.276;2023-01-29T09:06:21;18.77;;;16.77;;
12314;SDS011;23886;46.614;14.276;2023-01-29T09:08:48;20.50;;;17.57;;
12314;SDS011;23886;46.614;14.276;2023-01-29T09:11:15;18.47;;;16.53;;
12314;SDS011;23886;46.614;14.276;2023-01-29T09:13:42;18.70;;;16.70;;
12314;SDS011;23886;46.614;14.276;2023-01-29T09:16:09;18.77;;;16.37;;
12314;SDS011;23886;46.614;14.276;2023-01-29T09:18:36;20.03;;;17.93;;
12314;SDS011;23886;46.614;14.276;2023-01-29T09:21:05;19.07;;;17.17;;
12314;SDS011;23886;46.614;14.276;2023-01-29T09:23:32;19.23;;;17.13;;
12314;SDS011;23886;46.614;14.276;2023-01-29T09:25:59;19.40;;;16.43;;
12314;SDS011;23886;46.614;14.276;2023-01-29T09:28:26;17.40;;;15.60;;
12314;SDS011;23886;46.614;14.276;2023-01-29T09:30:53;18.23;;;16.30;;
12314;SDS011;23886;46.614;14.276;2023-01-29T09:33:20;17.80;;;15.50;;
12314;SDS011;23886;46.614;14.276;2023-01-29T09:35:48;21.47;;;18.80;;
12314;SDS011;23886;46.614;14.276;2023-01-29T09:38:17;19.77;;;17.63;;
12314;SDS011;23886;46.614;14.276;2023-01-29T09:40:46;19.07;;;17.07;;
12314;SDS011;23886;46.614;14.276;2023-01-29T09:43:21;16.57;;;14.77;;
12314;SDS011;23886;46.614;14.276;2023-01-29T09:45:53;17.07;;;15.33;;
12314;SDS011;23886;46.614;14.276;2023-01-29T09:48:24;17.07;;;15.27;;
12314;SDS011;23886;46.614;14.276;2023-01-29T09:50:55;17.30;;;15.50;;
12314;SDS011;23886;46.614;14.276;2023-01-29T09:53:28;16.77;;;15.07;;
12314;SDS011;23886;46.614;14.276;2023-01-29T09:56:01;18.23;;;15.80;;
12314;SDS011;23886;46.614;14.276;2023-01-29T09:58:30;19.63;;;16.53;;
12314;SDS011;23886;46.614;14.276;2023-01-29T10:01:04;16.87;;;14.90;;
12314;SDS011;23886;46.614;14.276;2023-01-29T10:03:43;16.87;;;15.07;;
12314;SDS011;23886;46.614;14.276;2023-01-29T10:06:24;12.90;;;11.60;;
12314;SDS011;23886;46.614;14.276;2023-01-29T10:11:59;14.37;;;12.87;;
12314;SDS011;23886;46.614;14.276;2023-01-29T10:14:37;15.60;;;14.00;;
12314;SDS011;23886;46.614;14.276;2023-01-29T10:17:18;15.20;;;13.70;;
12314;SDS011;23886;46.614;14.276;2023-01-29T10:20:05;13.23;;;11.93;;
12314;SDS011;23886;46.614;14.276;2023-01-29T10:22:53;14.83;;;13.20;;
12314;SDS011;23886;46.614;14.276;2023-01-29T10:25:30;16.20;;;14.50;;
12314;SDS011;23886;46.614;14.276;2023-01-29T10:28:00;14.63;;;13.10;;
12314;SDS011;23886;46.614;14.276;2023-01-29T10:30:29;13.87;;;12.47;;
12314;SDS011;23886;46.614;14.276;2023-01-29T10:33:01;13.77;;;12.27;;
12314;SDS011;23886;46.614;14.276;2023-01-29T10:35:30;17.73;;;15.83;;
12314;SDS011;23886;46.614;14.276;2023-01-29T10:38:01;14.87;;;13.23;;
12314;SDS011;23886;46.614;14.276;2023-01-29T10:40:43;13.53;;;12.13;;
12314;SDS011;23886;46.614;14.276;2023-01-29T10:43:14;13.07;;;11.73;;
12314;SDS011;23886;46.614;14.276;2023-01-29T10:45:46;12.77;;;11.47;;
12314;SDS011;23886;46.614;14.276;2023-01-29T10:51:15;12.27;;;11.07;;
12314;SDS011;23886;46.614;14.276;2023-01-29T10:53:54;13.47;;;10.90;;
12314;SDS011;23886;46.614;14.276;2023-01-29T10:56:33;12.47;;;11.07;;
12314;SDS011;23886;46.614;14.276;2023-01-29T10:59:12;12.80;;;11.50;;
12314;SDS011;23886;46.614;14.276;2023-01-29T11:01:56;12.00;;;10.80;;
12314;SDS011;23886;46.614;14.276;2023-01-29T11:04:24;12.47;;;11.17;;
12314;SDS011;23886;46.614;14.276;2023-01-29T11:06:53;11.47;;;10.23;;
12314;SDS011;23886;46.614;14.276;2023-01-29T11:09:23;12.70;;;11.20;;
12314;SDS011;23886;46.614;14.276;2023-01-29T11:11:56;11.97;;;10.77;;
12314;SDS011;23886;46.614;14.276;2023-01-29T11:14:28;18.57;;;16.30;;
12314;SDS011;23886;46.614;14.276;2023-01-29T11:17:01;12.63;;;10.43;;
12314;SDS011;23886;46.614;14.276;2023-01-29T11:19:35;11.30;;;10.20;;
12314;SDS011;23886;46.614;14.276;2023-01-29T11:22:04;12.50;;;10.70;;
12314;SDS011;23886;46.614;14.276;2023-01-29T11:24:37;11.40;;;10.27;;
12314;SDS011;23886;46.614;14.276;2023-01-29T11:27:12;11.93;;;10.73;;
12314;SDS011;23886;46.614;14.276;2023-01-29T11:29:41;11.63;;;10.50;;
12314;SDS011;23886;46.614;14.276;2023-01-29T11:32:11;11.13;;;10.07;;
12314;SDS011;23886;46.614;14.276;2023-01-29T11:34:56;12.67;;;11.17;;
12314;SDS011;23886;46.614;14.276;2023-01-29T11:37:30;11.23;;;10.23;;
12314;SDS011;23886;46.614;14.276;2023-01-29T11:39:58;11.30;;;10.00;;
12314;SDS011;23886;46.614;14.276;2023-01-29T11:42:29;11.67;;;10.40;;
12314;SDS011;23886;46.614;14.276;2023-01-29T11:44:57;11.53;;;10.33;;
12314;SDS011;23886;46.614;14.276;2023-01-29T11:47:25;10.73;;;9.07;;
12314;SDS011;23886;46.614;14.276;2023-01-29T11:49:54;10.07;;;9.03;;
12314;SDS011;23886;46.614;14.276;2023-01-29T11:52:23;11.40;;;9.63;;
12314;SDS011;23886;46.614;14.276;2023-01-29T11:54:53;10.63;;;9.43;;
12314;SDS011;23886;46.614;14.276;2023-01-29T11:57:29;12.20;;;10.47;;
12314;SDS011;23886;46.614;14.276;2023-01-29T11:59:59;11.23;;;10.10;;
12314;SDS011;23886;46.614;14.276;2023-01-29T12:02:31;12.80;;;9.87;;
12314;SDS011;23886;46.614;14.276;2023-01-29T12:05:03;13.07;;;10.60;;
12314;SDS011;23886;46.614;14.276;2023-01-29T12:07:32;12.10;;;10.87;;
12314;SDS011;23886;46.614;14.276;2023-01-29T12:09:59;13.40;;;11.70;;
12314;SDS011;23886;46.614;14.276;2023-01-29T12:12:33;13.93;;;11.53;;
12314;SDS011;23886;46.614;14.276;2023-01-29T12:15:16;11.63;;;10.53;;
12314;SDS011;23886;46.614;14.276;2023-01-29T12:17:56;12.47;;;11.13;;
12314;SDS011;23886;46.614;14.276;2023-01-29T12:20:30;12.67;;;11.37;;
12314;SDS011;23886;46.614;14.276;2023-01-29T12:23:05;14.73;;;11.83;;
12314;SDS011;23886;46.614;14.276;2023-01-29T12:25:46;12.73;;;11.00;;
12314;SDS011;23886;46.614;14.276;2023-01-29T12:28:25;12.87;;;11.57;;
12314;SDS011;23886;46.614;14.276;2023-01-29T12:31:05;12.23;;;11.03;;
12314;SDS011;23886;46.614;14.276;2023-01-29T12:33:46;11.23;;;10.03;;
12314;SDS011;23886;46.614;14.276;2023-01-29T12:36:18;11.50;;;10.23;;
12314;SDS011;23886;46.614;14.276;2023-01-29T12:38:50;11.37;;;10.17;;
12314;SDS011;23886;46.614;14.276;2023-01-29T12:41:27;11.63;;;10.43;;
12314;SDS011;23886;46.614;14.276;2023-01-29T12:44:01;11.20;;;10.07;;
12314;SDS011;23886;46.614;14.276;2023-01-29T12:46:36;12.40;;;10.57;;
12314;SDS011;23886;46.614;14.276;2023-01-29T12:49:09;15.37;;;11.40;;
12314;SDS011;23886;46.614;14.276;2023-01-29T12:51:43;15.47;;;12.53;;
12314;SDS011;23886;46.614;14.276;2023-01-29T12:54:16;11.07;;;10.03;;
12314;SDS011;23886;46.614;14.276;2023-01-29T12:56:48;10.80;;;9.70;;
12314;SDS011;23886;46.614;14.276;2023-01-29T12:59:21;12.57;;;11.30;;
12314;SDS011;23886;46.614;14.276;2023-01-29T13:01:53;12.13;;;11.03;;
12314;SDS011;23886;46.614;14.276;2023-01-29T13:04:27;12.47;;;11.17;;
12314;SDS011;23886;46.614;14.276;2023-01-29T13:07:03;14.13;;;12.67;;
12314;SDS011;23886;46.614;14.276;2023-01-29T13:09:36;16.10;;;13.03;;
12314;SDS011;23886;46.614;14.276;2023-01-29T13:12:10;12.90;;;11.60;;
12314;SDS011;23886;46.614;14.276;2023-01-29T13:14:43;14.57;;;13.07;;
12314;SDS011;23886;46.614;14.276;2023-01-29T13:17:15;17.07;;;13.77;;
12314;SDS011;23886;46.614;14.276;2023-01-29T13:19:47;15.43;;;13.13;;
12314;SDS011;23886;46.614;14.276;2023-01-29T13:22:18;13.97;;;12.57;;
12314;SDS011;23886;46.614;14.276;2023-01-29T13:24:48;13.87;;;12.37;;
12314;SDS011;23886;46.614;14.276;2023-01-29T13:27:19;12.87;;;11.47;;
12314;SDS011;23886;46.614;14.276;2023-01-29T13:29:50;13.27;;;11.87;;
12314;SDS011;23886;46.614;14.276;2023-01-29T13:32:21;12.50;;;11.23;;
12314;SDS011;23886;46.614;14.276;2023-01-29T13:34:53;17.70;;;14.17;;
12314;SDS011;23886;46.614;14.276;2023-01-29T13:37:24;13.97;;;12.10;;
12314;SDS011;23886;46.614;14.276;2023-01-29T13:39:54;16.63;;;13.90;;
12314;SDS011;23886;46.614;14.276;2023-01-29T13:42:24;15.13;;;13.03;;
12314;SDS011;23886;46.614;14.276;2023-01-29T13:45:01;14.63;;;13.13;;
12314;SDS011;23886;46.614;14.276;2023-01-29T13:47:32;13.23;;;11.93;;
12314;SDS011;23886;46.614;14.276;2023-01-29T13:50:02;12.47;;;11.17;;
12314;SDS011;23886;46.614;14.276;2023-01-29T13:52:36;12.97;;;11.67;;
12314;SDS011;23886;46.614;14.276;2023-01-29T13:55:16;12.80;;;11.50;;
12314;SDS011;23886;46.614;14.276;2023-01-29T13:57:54;12.70;;;11.40;;
12314;SDS011;23886;46.614;14.276;2023-01-29T14:11:59;11.10;;;10.00;;
12314;SDS011;23886;46.614;14.276;2023-01-29T14:17:17;12.47;;;11.17;;
12314;SDS011;23886;46.614;14.276;2023-01-29T14:19:46;11.23;;;10.13;;
12314;SDS011;23886;46.614;14.276;2023-01-29T14:22:17;11.63;;;10.53;;
12314;SDS011;23886;46.614;14.276;2023-01-29T14:24:47;12.70;;;11.40;;
12314;SDS011;23886;46.614;14.276;2023-01-29T14:27:17;12.27;;;11.07;;
12314;SDS011;23886;46.614;14.276;2023-01-29T14:29:47;12.90;;;11.13;;
12314;SDS011;23886;46.614;14.276;2023-01-29T14:32:19;11.07;;;10.07;;
12314;SDS011;23886;46.614;14.276;2023-01-29T14:34:49;12.43;;;11.13;;
12314;SDS011;23886;46.614;14.276;2023-01-29T14:37:20;12.27;;;10.97;;
12314;SDS011;23886;46.614;14.276;2023-01-29T14:39:54;11.70;;;10.50;;
12314;SDS011;23886;46.614;14.276;2023-01-29T14:42:23;11.83;;;10.63;;
12314;SDS011;23886;46.614;14.276;2023-01-29T14:44:57;11.50;;;10.30;;
12314;SDS011;23886;46.614;14.276;2023-01-29T14:50:48;11.57;;;10.43;;
12314;SDS011;23886;46.614;14.276;2023-01-29T14:53:18;11.97;;;10.77;;
12314;SDS011;23886;46.614;14.276;2023-01-29T14:55:49;11.83;;;10.73;;